sensor_id;sensor_type;location;lat;lon;timestamp;P1;durP1;ratioP1;P2;durP2;ratioP2
62584;SDS011;48643;51.670;5.808;2023-07-20T00:01:39;3.72;;;2.15;;
62584;SDS011;48643;51.670;5.808;2023-07-20T00:04:11;3.10;;;2.00;;
62584;SDS011;48643;51.670;5.808;2023-07-20T00:06:39;2.90;;;1.88;;
62584;SDS011;48643;51.670;5.808;2023-07-20T00:09:06;3.97;;;2.30;;
62584;SDS011;48643;51.670;5.808;2023-07-20T00:11:36;3.45;;;2.10;;
62584;SDS011;48643;51.670;5.808;2023-07-20T00:14:04;3.67;;;2.10;;
62584;SDS011;48643;51.670;5.808;2023-07-20T00:16:31;3.35;;;2.10;;
62584;SDS011;48643;51.670;5.808;2023-07-20T00:18:58;3.20;;;1.80;;
62584;SDS011;48643;51.670;5.808;2023-07-20T00:21:25;2.78;;;2.00;;
62584;SDS011;48643;51.670;5.808;2023-07-20T00:23:52;2.75;;;1.92;;
62584;SDS011;48643;51.670;5.808;2023-07-20T00:26:19;4.75;;;2.10;;
62584;SDS011;48643;51.670;5.808;2023-07-20T00:28:48;3.60;;;2.10;;
62584;SDS011;48643;51.670;5.808;2023-07-20T00:31:18;5.57;;;2.20;;
62584;SDS011;48643;51.670;5.808;2023-07-20T00:33:45;4.53;;;2.17;;
62584;SDS011;48643;51.670;5.808;2023-07-20T00:36:12;6.18;;;2.30;;
62584;SDS011;48643;51.670;5.808;2023-07-20T00:38:41;5.72;;;2.40;;
62584;SDS011;48643;51.670;5.808;2023-07-20T00:41:08;4.97;;;2.40;;
62584;SDS011;48643;51.670;5.808;2023-07-20T00:43:35;3.95;;;2.30;;
62584;SDS011;48643;51.670;5.808;2023-07-20T00:46:02;2.63;;;1.98;;
62584;SDS011;48643;51.670;5.808;2023-07-20T00:48:29;4.47;;;2.35;;
62584;SDS011;48643;51.670;5.808;2023-07-20T00:50:58;4.00;;;2.33;;
62584;SDS011;48643;51.670;5.808;2023-07-20T00:53:25;3.60;;;2.10;;
62584;SDS011;48643;51.670;5.808;2023-07-20T00:55:53;5.50;;;2.20;;
62584;SDS011;48643;51.670;5.808;2023-07-20T00:58:21;6.07;;;2.25;;
62584;SDS011;48643;51.670;5.808;2023-07-20T01:00:47;3.75;;;2.22;;
62584;SDS011;48643;51.670;5.808;2023-07-20T01:03:14;5.95;;;2.40;;
62584;SDS011;48643;51.670;5.808;2023-07-20T01:05:54;3.85;;;2.00;;
62584;SDS011;48643;51.670;5.808;2023-07-20T01:08:47;5.20;;;2.13;;
62584;SDS011;48643;51.670;5.808;2023-07-20T01:11:39;5.72;;;2.20;;
62584;SDS011;48643;51.670;5.808;2023-07-20T01:14:13;4.20;;;2.33;;
62584;SDS011;48643;51.670;5.808;2023-07-20T01:16:40;4.68;;;2.25;;
62584;SDS011;48643;51.670;5.808;2023-07-20T01:19:07;2.95;;;2.10;;
62584;SDS011;48643;51.670;5.808;2023-07-20T01:21:40;4.75;;;2.42;;
62584;SDS011;48643;51.670;5.808;2023-07-20T01:30:22;4.47;;;2.30;;
62584;SDS011;48643;51.670;5.808;2023-07-20T01:32:58;4.43;;;2.30;;
62584;SDS011;48643;51.670;5.808;2023-07-20T01:35:27;4.20;;;2.30;;
62584;SDS011;48643;51.670;5.808;2023-07-20T01:37:55;4.53;;;2.33;;
62584;SDS011;48643;51.670;5.808;2023-07-20T01:40:25;4.40;;;2.40;;
62584;SDS011;48643;51.670;5.808;2023-07-20T01:42:52;6.30;;;2.63;;
62584;SDS011;48643;51.670;5.808;2023-07-20T01:45:20;5.25;;;2.35;;
62584;SDS011;48643;51.670;5.808;2023-07-20T01:47:47;4.20;;;2.35;;
62584;SDS011;48643;51.670;5.808;2023-07-20T01:50:14;5.60;;;2.50;;
62584;SDS011;48643;51.670;5.808;2023-07-20T01:52:41;4.22;;;2.38;;
62584;SDS011;48643;51.670;5.808;2023-07-20T01:55:08;4.88;;;2.55;;
62584;SDS011;48643;51.670;5.808;2023-07-20T01:57:35;4.60;;;2.38;;
62584;SDS011;48643;51.670;5.808;2023-07-20T02:00:02;4.60;;;2.60;;
62584;SDS011;48643;51.670;5.808;2023-07-20T02:02:39;4.10;;;2.50;;
62584;SDS011;48643;51.670;5.808;2023-07-20T02:05:07;4.25;;;2.42;;
62584;SDS011;48643;51.670;5.808;2023-07-20T02:07:35;3.67;;;2.30;;
62584;SDS011;48643;51.670;5.808;2023-07-20T02:10:02;5.35;;;2.70;;
62584;SDS011;48643;51.670;5.808;2023-07-20T02:12:29;4.40;;;2.42;;
62584;SDS011;48643;51.670;5.808;2023-07-20T02:14:56;4.05;;;2.35;;
62584;SDS011;48643;51.670;5.808;2023-07-20T02:17:23;4.25;;;2.58;;
62584;SDS011;48643;51.670;5.808;2023-07-20T02:19:50;3.72;;;2.42;;
62584;SDS011;48643;51.670;5.808;2023-07-20T02:22:21;5.60;;;2.40;;
62584;SDS011;48643;51.670;5.808;2023-07-20T02:24:48;4.10;;;2.10;;
62584;SDS011;48643;51.670;5.808;2023-07-20T02:27:16;4.65;;;2.30;;
62584;SDS011;48643;51.670;5.808;2023-07-20T02:29:43;5.13;;;2.40;;
62584;SDS011;48643;51.670;5.808;2023-07-20T02:32:10;3.90;;;2.33;;
62584;SDS011;48643;51.670;5.808;2023-07-20T02:34:37;3.40;;;2.42;;
62584;SDS011;48643;51.670;5.808;2023-07-20T02:37:04;5.03;;;2.55;;
62584;SDS011;48643;51.670;5.808;2023-07-20T02:39:32;4.05;;;2.20;;
62584;SDS011;48643;51.670;5.808;2023-07-20T02:41:58;4.50;;;2.50;;
62584;SDS011;48643;51.670;5.808;2023-07-20T02:44:25;3.35;;;2.30;;
62584;SDS011;48643;51.670;5.808;2023-07-20T02:46:52;5.40;;;2.30;;
62584;SDS011;48643;51.670;5.808;2023-07-20T02:49:19;3.72;;;2.28;;
62584;SDS011;48643;51.670;5.808;2023-07-20T02:51:46;4.80;;;2.55;;
62584;SDS011;48643;51.670;5.808;2023-07-20T02:54:14;4.00;;;2.38;;
62584;SDS011;48643;51.670;5.808;2023-07-20T02:56:41;3.28;;;2.35;;
62584;SDS011;48643;51.670;5.808;2023-07-20T02:59:08;5.25;;;2.40;;
62584;SDS011;48643;51.670;5.808;2023-07-20T03:01:35;3.50;;;2.42;;
62584;SDS011;48643;51.670;5.808;2023-07-20T03:04:02;5.35;;;2.65;;
62584;SDS011;48643;51.670;5.808;2023-07-20T03:06:30;3.50;;;2.35;;
62584;SDS011;48643;51.670;5.808;2023-07-20T03:08:58;5.13;;;2.38;;
62584;SDS011;48643;51.670;5.808;2023-07-20T03:11:24;4.57;;;2.33;;
62584;SDS011;48643;51.670;5.808;2023-07-20T03:13:51;4.30;;;2.40;;
62584;SDS011;48643;51.670;5.808;2023-07-20T03:16:19;5.13;;;2.45;;
62584;SDS011;48643;51.670;5.808;2023-07-20T03:18:47;3.05;;;2.15;;
62584;SDS011;48643;51.670;5.808;2023-07-20T03:21:14;4.18;;;2.42;;
62584;SDS011;48643;51.670;5.808;2023-07-20T03:23:42;4.57;;;2.20;;
62584;SDS011;48643;51.670;5.808;2023-07-20T03:26:09;3.72;;;2.10;;
62584;SDS011;48643;51.670;5.808;2023-07-20T03:28:37;5.30;;;2.30;;
62584;SDS011;48643;51.670;5.808;2023-07-20T03:31:05;4.57;;;2.38;;
62584;SDS011;48643;51.670;5.808;2023-07-20T03:33:36;4.25;;;2.53;;
62584;SDS011;48643;51.670;5.808;2023-07-20T03:36:03;3.83;;;2.20;;
62584;SDS011;48643;51.670;5.808;2023-07-20T03:38:30;5.20;;;2.30;;
62584;SDS011;48643;51.670;5.808;2023-07-20T03:40:58;3.90;;;2.08;;
62584;SDS011;48643;51.670;5.808;2023-07-20T03:43:26;4.05;;;2.17;;
62584;SDS011;48643;51.670;5.808;2023-07-20T03:45:54;2.90;;;2.10;;
62584;SDS011;48643;51.670;5.808;2023-07-20T03:48:23;3.92;;;2.17;;
62584;SDS011;48643;51.670;5.808;2023-07-20T03:50:51;3.20;;;2.03;;
62584;SDS011;48643;51.670;5.808;2023-07-20T03:53:18;3.38;;;2.10;;
62584;SDS011;48643;51.670;5.808;2023-07-20T03:55:46;3.42;;;2.13;;
62584;SDS011;48643;51.670;5.808;2023-07-20T03:58:13;2.47;;;1.90;;
62584;SDS011;48643;51.670;5.808;2023-07-20T04:00:50;3.30;;;2.15;;
62584;SDS011;48643;51.670;5.808;2023-07-20T04:03:19;4.90;;;2.30;;
62584;SDS011;48643;51.670;5.808;2023-07-20T04:05:46;3.63;;;2.10;;
62584;SDS011;48643;51.670;5.808;2023-07-20T04:08:13;3.38;;;2.15;;
62584;SDS011;48643;51.670;5.808;2023-07-20T04:10:43;3.88;;;2.10;;
62584;SDS011;48643;51.670;5.808;2023-07-20T04:13:10;5.63;;;2.08;;
62584;SDS011;48643;51.670;5.808;2023-07-20T04:15:37;3.17;;;2.00;;
62584;SDS011;48643;51.670;5.808;2023-07-20T04:18:04;3.45;;;2.00;;
62584;SDS011;48643;51.670;5.808;2023-07-20T04:20:31;4.20;;;1.85;;
62584;SDS011;48643;51.670;5.808;2023-07-20T04:22:58;4.78;;;1.88;;
62584;SDS011;48643;51.670;5.808;2023-07-20T04:25:25;3.13;;;1.90;;
62584;SDS011;48643;51.670;5.808;2023-07-20T04:27:52;2.42;;;1.70;;
62584;SDS011;48643;51.670;5.808;2023-07-20T04:30:20;5.88;;;2.00;;
62584;SDS011;48643;51.670;5.808;2023-07-20T04:32:48;2.50;;;1.85;;
62584;SDS011;48643;51.670;5.808;2023-07-20T04:35:25;2.67;;;1.80;;
62584;SDS011;48643;51.670;5.808;2023-07-20T04:38:16;3.08;;;1.83;;
62584;SDS011;48643;51.670;5.808;2023-07-20T04:40:48;4.15;;;1.73;;
62584;SDS011;48643;51.670;5.808;2023-07-20T04:43:16;3.00;;;1.80;;
62584;SDS011;48643;51.670;5.808;2023-07-20T04:45:44;4.38;;;1.90;;
62584;SDS011;48643;51.670;5.808;2023-07-20T04:48:11;2.97;;;2.00;;
62584;SDS011;48643;51.670;5.808;2023-07-20T04:50:46;4.20;;;1.90;;
62584;SDS011;48643;51.670;5.808;2023-07-20T04:53:13;2.15;;;1.70;;
62584;SDS011;48643;51.670;5.808;2023-07-20T04:55:40;3.78;;;1.98;;
62584;SDS011;48643;51.670;5.808;2023-07-20T04:58:18;3.00;;;1.92;;
62584;SDS011;48643;51.670;5.808;2023-07-20T05:00:46;2.20;;;1.70;;
62584;SDS011;48643;51.670;5.808;2023-07-20T05:03:14;3.38;;;1.65;;
62584;SDS011;48643;51.670;5.808;2023-07-20T05:05:41;3.15;;;1.90;;
62584;SDS011;48643;51.670;5.808;2023-07-20T05:08:08;2.30;;;1.80;;
62584;SDS011;48643;51.670;5.808;2023-07-20T05:10:35;2.65;;;1.80;;
62584;SDS011;48643;51.670;5.808;2023-07-20T05:13:02;3.30;;;1.88;;
62584;SDS011;48643;51.670;5.808;2023-07-20T05:15:28;2.08;;;1.65;;
62584;SDS011;48643;51.670;5.808;2023-07-20T05:17:57;2.58;;;1.75;;
62584;SDS011;48643;51.670;5.808;2023-07-20T05:20:24;2.17;;;1.75;;
62584;SDS011;48643;51.670;5.808;2023-07-20T05:22:51;3.85;;;1.92;;
62584;SDS011;48643;51.670;5.808;2023-07-20T05:25:19;4.22;;;1.83;;
62584;SDS011;48643;51.670;5.808;2023-07-20T05:27:49;3.17;;;1.90;;
62584;SDS011;48643;51.670;5.808;2023-07-20T05:30:16;3.53;;;1.75;;
62584;SDS011;48643;51.670;5.808;2023-07-20T05:32:43;3.50;;;1.70;;
62584;SDS011;48643;51.670;5.808;2023-07-20T05:35:13;2.22;;;1.60;;
62584;SDS011;48643;51.670;5.808;2023-07-20T05:37:42;2.63;;;1.60;;
62584;SDS011;48643;51.670;5.808;2023-07-20T05:40:08;3.33;;;1.92;;
62584;SDS011;48643;51.670;5.808;2023-07-20T05:42:38;1.80;;;1.50;;
62584;SDS011;48643;51.670;5.808;2023-07-20T05:45:06;4.57;;;1.93;;
62584;SDS011;48643;51.670;5.808;2023-07-20T05:47:33;3.92;;;1.80;;
62584;SDS011;48643;51.670;5.808;2023-07-20T05:50:00;2.10;;;1.67;;
62584;SDS011;48643;51.670;5.808;2023-07-20T05:52:27;1.95;;;1.50;;
62584;SDS011;48643;51.670;5.808;2023-07-20T05:54:54;3.05;;;1.60;;
62584;SDS011;48643;51.670;5.808;2023-07-20T05:57:21;3.97;;;1.70;;
62584;SDS011;48643;51.670;5.808;2023-07-20T05:59:48;1.77;;;1.52;;
62584;SDS011;48643;51.670;5.808;2023-07-20T06:02:15;3.33;;;1.83;;
62584;SDS011;48643;51.670;5.808;2023-07-20T06:04:42;2.15;;;1.63;;
62584;SDS011;48643;51.670;5.808;2023-07-20T06:07:09;2.30;;;1.80;;
62584;SDS011;48643;51.670;5.808;2023-07-20T06:09:38;2.53;;;1.70;;
62584;SDS011;48643;51.670;5.808;2023-07-20T06:12:05;5.38;;;4.13;;
62584;SDS011;48643;51.670;5.808;2023-07-20T06:14:33;5.63;;;4.20;;
62584;SDS011;48643;51.670;5.808;2023-07-20T06:17:00;6.10;;;4.35;;
62584;SDS011;48643;51.670;5.808;2023-07-20T06:19:27;7.80;;;4.60;;
62584;SDS011;48643;51.670;5.808;2023-07-20T06:21:54;7.88;;;4.13;;
62584;SDS011;48643;51.670;5.808;2023-07-20T06:24:21;7.30;;;4.00;;
62584;SDS011;48643;51.670;5.808;2023-07-20T06:26:47;4.85;;;3.85;;
62584;SDS011;48643;51.670;5.808;2023-07-20T06:29:14;11.55;;;4.60;;
62584;SDS011;48643;51.670;5.808;2023-07-20T06:31:41;6.43;;;3.80;;
62584;SDS011;48643;51.670;5.808;2023-07-20T06:34:08;6.18;;;4.40;;
62584;SDS011;48643;51.670;5.808;2023-07-20T06:36:35;8.52;;;4.10;;
62584;SDS011;48643;51.670;5.808;2023-07-20T06:39:02;6.88;;;3.90;;
62584;SDS011;48643;51.670;5.808;2023-07-20T06:41:32;4.43;;;3.67;;
62584;SDS011;48643;51.670;5.808;2023-07-20T06:44:02;5.22;;;3.63;;
62584;SDS011;48643;51.670;5.808;2023-07-20T06:46:29;4.85;;;3.55;;
62584;SDS011;48643;51.670;5.808;2023-07-20T06:48:56;8.27;;;3.70;;
62584;SDS011;48643;51.670;5.808;2023-07-20T06:51:26;5.28;;;3.65;;
62584;SDS011;48643;51.670;5.808;2023-07-20T06:53:53;9.80;;;3.40;;
62584;SDS011;48643;51.670;5.808;2023-07-20T06:56:20;10.18;;;3.40;;
62584;SDS011;48643;51.670;5.808;2023-07-20T06:58:52;6.53;;;3.38;;
62584;SDS011;48643;51.670;5.808;2023-07-20T07:01:19;5.63;;;3.50;;
62584;SDS011;48643;51.670;5.808;2023-07-20T07:03:48;4.63;;;3.42;;
62584;SDS011;48643;51.670;5.808;2023-07-20T07:06:21;5.05;;;3.45;;
62584;SDS011;48643;51.670;5.808;2023-07-20T07:08:49;4.10;;;3.03;;
62584;SDS011;48643;51.670;5.808;2023-07-20T07:11:17;4.20;;;3.10;;
62584;SDS011;48643;51.670;5.808;2023-07-20T07:13:43;3.88;;;3.00;;
62584;SDS011;48643;51.670;5.808;2023-07-20T07:16:13;5.95;;;3.50;;
62584;SDS011;48643;51.670;5.808;2023-07-20T07:18:46;4.43;;;3.17;;
62584;SDS011;48643;51.670;5.808;2023-07-20T07:21:13;5.07;;;3.40;;
62584;SDS011;48643;51.670;5.808;2023-07-20T07:23:40;5.97;;;3.22;;
62584;SDS011;48643;51.670;5.808;2023-07-20T07:26:07;5.13;;;2.60;;
62584;SDS011;48643;51.670;5.808;2023-07-20T07:28:34;5.07;;;2.55;;
62584;SDS011;48643;51.670;5.808;2023-07-20T07:31:00;5.65;;;2.63;;
62584;SDS011;48643;51.670;5.808;2023-07-20T07:33:31;6.30;;;3.00;;
62584;SDS011;48643;51.670;5.808;2023-07-20T07:35:58;6.43;;;2.40;;
62584;SDS011;48643;51.670;5.808;2023-07-20T07:38:28;7.47;;;2.45;;
62584;SDS011;48643;51.670;5.808;2023-07-20T07:41:15;3.97;;;2.00;;
62584;SDS011;48643;51.670;5.808;2023-07-20T07:43:42;4.90;;;1.90;;
62584;SDS011;48643;51.670;5.808;2023-07-20T07:46:09;4.43;;;1.75;;
62584;SDS011;48643;51.670;5.808;2023-07-20T07:48:36;5.47;;;1.80;;
62584;SDS011;48643;51.670;5.808;2023-07-20T07:51:03;5.70;;;1.70;;
62584;SDS011;48643;51.670;5.808;2023-07-20T07:53:30;7.70;;;1.80;;
62584;SDS011;48643;51.670;5.808;2023-07-20T07:55:58;4.47;;;1.70;;
62584;SDS011;48643;51.670;5.808;2023-07-20T07:58:26;3.65;;;2.00;;
62584;SDS011;48643;51.670;5.808;2023-07-20T08:00:52;4.35;;;1.98;;
62584;SDS011;48643;51.670;5.808;2023-07-20T08:03:19;2.72;;;2.10;;
62584;SDS011;48643;51.670;5.808;2023-07-20T08:05:48;4.68;;;2.10;;
62584;SDS011;48643;51.670;5.808;2023-07-20T08:08:15;2.58;;;1.75;;
62584;SDS011;48643;51.670;5.808;2023-07-20T08:10:42;3.25;;;2.10;;
62584;SDS011;48643;51.670;5.808;2023-07-20T08:13:09;4.35;;;2.42;;
62584;SDS011;48643;51.670;5.808;2023-07-20T08:15:36;3.22;;;2.60;;
62584;SDS011;48643;51.670;5.808;2023-07-20T08:18:03;5.70;;;2.67;;
62584;SDS011;48643;51.670;5.808;2023-07-20T08:20:30;4.97;;;2.20;;
62584;SDS011;48643;51.670;5.808;2023-07-20T08:22:58;3.60;;;2.10;;
62584;SDS011;48643;51.670;5.808;2023-07-20T08:25:26;7.20;;;2.30;;
62584;SDS011;48643;51.670;5.808;2023-07-20T08:27:52;2.92;;;1.90;;
62584;SDS011;48643;51.670;5.808;2023-07-20T08:30:21;2.95;;;2.20;;
62584;SDS011;48643;51.670;5.808;2023-07-20T08:32:49;4.25;;;2.20;;
62584;SDS011;48643;51.670;5.808;2023-07-20T08:35:16;4.53;;;2.17;;
62584;SDS011;48643;51.670;5.808;2023-07-20T08:37:47;4.40;;;2.33;;
62584;SDS011;48643;51.670;5.808;2023-07-20T08:40:14;2.55;;;2.00;;
62584;SDS011;48643;51.670;5.808;2023-07-20T08:42:41;3.10;;;2.00;;
62584;SDS011;48643;51.670;5.808;2023-07-20T08:45:09;7.13;;;1.90;;
62584;SDS011;48643;51.670;5.808;2023-07-20T08:47:36;2.47;;;1.67;;
62584;SDS011;48643;51.670;5.808;2023-07-20T08:50:03;5.45;;;2.00;;
62584;SDS011;48643;51.670;5.808;2023-07-20T08:52:34;2.85;;;1.90;;
62584;SDS011;48643;51.670;5.808;2023-07-20T08:55:00;3.45;;;1.95;;
62584;SDS011;48643;51.670;5.808;2023-07-20T08:57:31;2.13;;;1.60;;
62584;SDS011;48643;51.670;5.808;2023-07-20T09:00:05;2.58;;;1.70;;
62584;SDS011;48643;51.670;5.808;2023-07-20T09:02:39;2.78;;;1.50;;
62584;SDS011;48643;51.670;5.808;2023-07-20T09:05:09;4.20;;;1.73;;
62584;SDS011;48643;51.670;5.808;2023-07-20T09:07:36;1.92;;;1.50;;
62584;SDS011;48643;51.670;5.808;2023-07-20T09:10:03;2.92;;;1.60;;
62584;SDS011;48643;51.670;5.808;2023-07-20T09:12:35;2.35;;;1.60;;
62584;SDS011;48643;51.670;5.808;2023-07-20T09:15:04;3.40;;;1.50;;
62584;SDS011;48643;51.670;5.808;2023-07-20T09:17:32;4.03;;;1.83;;
62584;SDS011;48643;51.670;5.808;2023-07-20T09:20:01;2.05;;;1.77;;
62584;SDS011;48643;51.670;5.808;2023-07-20T09:22:37;3.35;;;1.55;;
62584;SDS011;48643;51.670;5.808;2023-07-20T09:25:11;2.90;;;1.50;;
62584;SDS011;48643;51.670;5.808;2023-07-20T09:27:41;1.55;;;1.45;;
62584;SDS011;48643;51.670;5.808;2023-07-20T09:30:09;2.15;;;1.50;;
62584;SDS011;48643;51.670;5.808;2023-07-20T09:32:44;2.08;;;1.52;;
62584;SDS011;48643;51.670;5.808;2023-07-20T09:35:15;2.40;;;1.60;;
62584;SDS011;48643;51.670;5.808;2023-07-20T09:37:47;1.70;;;1.48;;
62584;SDS011;48643;51.670;5.808;2023-07-20T09:40:38;6.38;;;1.70;;
62584;SDS011;48643;51.670;5.808;2023-07-20T09:43:08;3.95;;;1.80;;
62584;SDS011;48643;51.670;5.808;2023-07-20T09:45:40;2.20;;;1.58;;
62584;SDS011;48643;51.670;5.808;2023-07-20T09:48:11;3.30;;;1.85;;
62584;SDS011;48643;51.670;5.808;2023-07-20T09:50:42;6.45;;;1.80;;
62584;SDS011;48643;51.670;5.808;2023-07-20T09:53:13;3.45;;;1.90;;
62584;SDS011;48643;51.670;5.808;2023-07-20T09:55:40;2.38;;;1.70;;
62584;SDS011;48643;51.670;5.808;2023-07-20T09:58:08;2.10;;;1.70;;
62584;SDS011;48643;51.670;5.808;2023-07-20T10:00:36;3.15;;;1.80;;
62584;SDS011;48643;51.670;5.808;2023-07-20T10:03:07;3.20;;;1.80;;
62584;SDS011;48643;51.670;5.808;2023-07-20T10:05:35;3.28;;;1.85;;
62584;SDS011;48643;51.670;5.808;2023-07-20T10:08:07;3.67;;;2.22;;
62584;SDS011;48643;51.670;5.808;2023-07-20T10:10:41;3.13;;;2.17;;
62584;SDS011;48643;51.670;5.808;2023-07-20T10:15:37;7.22;;;1.90;;
62584;SDS011;48643;51.670;5.808;2023-07-20T10:18:18;3.50;;;2.50;;
62584;SDS011;48643;51.670;5.808;2023-07-20T10:21:08;3.97;;;2.50;;
62584;SDS011;48643;51.670;5.808;2023-07-20T10:23:39;4.63;;;3.00;;
62584;SDS011;48643;51.670;5.808;2023-07-20T10:26:06;5.03;;;3.00;;
62584;SDS011;48643;51.670;5.808;2023-07-20T10:28:35;5.68;;;3.42;;
62584;SDS011;48643;51.670;5.808;2023-07-20T10:31:02;3.95;;;3.05;;
62584;SDS011;48643;51.670;5.808;2023-07-20T10:33:30;4.10;;;3.08;;
62584;SDS011;48643;51.670;5.808;2023-07-20T10:36:01;3.83;;;2.90;;
62584;SDS011;48643;51.670;5.808;2023-07-20T10:39:14;4.32;;;2.13;;
62584;SDS011;48643;51.670;5.808;2023-07-20T10:41:38;3.90;;;3.08;;
62584;SDS011;48643;51.670;5.808;2023-07-20T10:44:07;3.38;;;2.45;;
62584;SDS011;48643;51.670;5.808;2023-07-20T10:46:44;2.88;;;2.25;;
62584;SDS011;48643;51.670;5.808;2023-07-20T10:49:12;3.00;;;2.10;;
62584;SDS011;48643;51.670;5.808;2023-07-20T10:51:45;3.75;;;1.90;;
62584;SDS011;48643;51.670;5.808;2023-07-20T10:56:45;3.05;;;2.50;;
62584;SDS011;48643;51.670;5.808;2023-07-20T10:59:17;4.72;;;2.63;;
62584;SDS011;48643;51.670;5.808;2023-07-20T11:01:59;5.50;;;2.88;;
62584;SDS011;48643;51.670;5.808;2023-07-20T11:04:37;4.25;;;2.70;;
62584;SDS011;48643;51.670;5.808;2023-07-20T11:07:08;6.75;;;2.55;;
62584;SDS011;48643;51.670;5.808;2023-07-20T11:09:36;3.22;;;2.45;;
62584;SDS011;48643;51.670;5.808;2023-07-20T11:14:54;2.63;;;2.10;;
62584;SDS011;48643;51.670;5.808;2023-07-20T11:19:57;5.07;;;2.20;;
62584;SDS011;48643;51.670;5.808;2023-07-20T11:22:27;3.72;;;2.20;;
62584;SDS011;48643;51.670;5.808;2023-07-20T11:24:57;2.92;;;2.10;;
62584;SDS011;48643;51.670;5.808;2023-07-20T11:27:24;3.70;;;2.30;;
62584;SDS011;48643;51.670;5.808;2023-07-20T11:29:52;3.25;;;2.10;;
62584;SDS011;48643;51.670;5.808;2023-07-20T11:32:22;2.80;;;2.00;;
62584;SDS011;48643;51.670;5.808;2023-07-20T11:34:50;2.40;;;1.80;;
62584;SDS011;48643;51.670;5.808;2023-07-20T11:37:17;3.92;;;2.00;;
62584;SDS011;48643;51.670;5.808;2023-07-20T11:39:45;2.78;;;2.17;;
62584;SDS011;48643;51.670;5.808;2023-07-20T11:42:13;3.53;;;1.90;;
62584;SDS011;48643;51.670;5.808;2023-07-20T11:45:01;5.45;;;2.10;;
62584;SDS011;48643;51.670;5.808;2023-07-20T11:47:31;2.80;;;2.00;;
62584;SDS011;48643;51.670;5.808;2023-07-20T11:50:02;2.88;;;2.30;;
62584;SDS011;48643;51.670;5.808;2023-07-20T11:52:30;16.58;;;2.53;;
62584;SDS011;48643;51.670;5.808;2023-07-20T11:54:57;6.80;;;2.30;;
62584;SDS011;48643;51.670;5.808;2023-07-20T11:57:24;4.55;;;2.17;;
62584;SDS011;48643;51.670;5.808;2023-07-20T12:00:00;4.35;;;2.20;;
62584;SDS011;48643;51.670;5.808;2023-07-20T12:02:35;5.18;;;2.25;;
62584;SDS011;48643;51.670;5.808;2023-07-20T12:05:02;3.25;;;1.77;;
62584;SDS011;48643;51.670;5.808;2023-07-20T12:07:29;3.42;;;1.95;;
62584;SDS011;48643;51.670;5.808;2023-07-20T12:10:11;3.85;;;2.10;;
62584;SDS011;48643;51.670;5.808;2023-07-20T12:12:39;4.22;;;2.45;;
62584;SDS011;48643;51.670;5.808;2023-07-20T12:15:17;8.60;;;2.50;;
62584;SDS011;48643;51.670;5.808;2023-07-20T12:17:46;5.28;;;2.15;;
62584;SDS011;48643;51.670;5.808;2023-07-20T12:23:10;4.20;;;2.10;;
62584;SDS011;48643;51.670;5.808;2023-07-20T12:28:14;1.98;;;1.70;;
62584;SDS011;48643;51.670;5.808;2023-07-20T12:30:43;2.53;;;1.80;;
62584;SDS011;48643;51.670;5.808;2023-07-20T12:33:11;2.50;;;2.10;;
62584;SDS011;48643;51.670;5.808;2023-07-20T12:35:41;2.70;;;1.95;;
62584;SDS011;48643;51.670;5.808;2023-07-20T12:38:09;3.00;;;2.05;;
62584;SDS011;48643;51.670;5.808;2023-07-20T12:40:36;3.67;;;1.85;;
62584;SDS011;48643;51.670;5.808;2023-07-20T12:43:03;2.05;;;1.70;;
62584;SDS011;48643;51.670;5.808;2023-07-20T12:45:31;3.10;;;2.00;;
62584;SDS011;48643;51.670;5.808;2023-07-20T12:47:58;3.08;;;1.83;;
62584;SDS011;48643;51.670;5.808;2023-07-20T12:50:26;3.55;;;1.80;;
62584;SDS011;48643;51.670;5.808;2023-07-20T12:52:53;2.75;;;1.52;;
62584;SDS011;48643;51.670;5.808;2023-07-20T12:55:21;2.38;;;1.70;;
62584;SDS011;48643;51.670;5.808;2023-07-20T12:57:48;2.92;;;1.98;;
62584;SDS011;48643;51.670;5.808;2023-07-20T13:00:15;2.65;;;1.80;;
62584;SDS011;48643;51.670;5.808;2023-07-20T13:02:42;2.47;;;1.75;;
62584;SDS011;48643;51.670;5.808;2023-07-20T13:05:10;3.47;;;1.85;;
62584;SDS011;48643;51.670;5.808;2023-07-20T13:07:37;4.80;;;2.08;;
62584;SDS011;48643;51.670;5.808;2023-07-20T13:10:09;3.92;;;1.80;;
62584;SDS011;48643;51.670;5.808;2023-07-20T13:12:37;3.80;;;1.58;;
62584;SDS011;48643;51.670;5.808;2023-07-20T13:15:06;4.28;;;1.92;;
62584;SDS011;48643;51.670;5.808;2023-07-20T13:17:34;3.53;;;1.80;;
62584;SDS011;48643;51.670;5.808;2023-07-20T13:20:02;3.77;;;2.07;;
62584;SDS011;48643;51.670;5.808;2023-07-20T13:22:33;3.28;;;2.00;;
62584;SDS011;48643;51.670;5.808;2023-07-20T13:25:01;2.93;;;2.10;;
62584;SDS011;48643;51.670;5.808;2023-07-20T13:27:28;4.28;;;2.10;;
62584;SDS011;48643;51.670;5.808;2023-07-20T13:29:55;5.82;;;1.92;;
62584;SDS011;48643;51.670;5.808;2023-07-20T13:32:23;4.22;;;2.30;;
62584;SDS011;48643;51.670;5.808;2023-07-20T13:34:50;3.35;;;2.10;;
62584;SDS011;48643;51.670;5.808;2023-07-20T13:37:17;3.50;;;2.10;;
62584;SDS011;48643;51.670;5.808;2023-07-20T13:39:45;3.58;;;2.10;;
62584;SDS011;48643;51.670;5.808;2023-07-20T13:42:12;4.85;;;2.60;;
62584;SDS011;48643;51.670;5.808;2023-07-20T13:44:39;3.17;;;2.22;;
62584;SDS011;48643;51.670;5.808;2023-07-20T13:47:06;5.75;;;2.90;;
62584;SDS011;48643;51.670;5.808;2023-07-20T13:49:36;4.03;;;2.85;;
62584;SDS011;48643;51.670;5.808;2023-07-20T13:52:13;3.05;;;2.25;;
62584;SDS011;48643;51.670;5.808;2023-07-20T13:54:43;6.63;;;2.50;;
62584;SDS011;48643;51.670;5.808;2023-07-20T13:57:16;2.95;;;2.30;;
62584;SDS011;48643;51.670;5.808;2023-07-20T13:59:43;2.40;;;2.10;;
62584;SDS011;48643;51.670;5.808;2023-07-20T14:02:11;5.03;;;2.20;;
62584;SDS011;48643;51.670;5.808;2023-07-20T14:04:43;6.20;;;2.15;;
62584;SDS011;48643;51.670;5.808;2023-07-20T14:07:10;5.95;;;2.50;;
62584;SDS011;48643;51.670;5.808;2023-07-20T14:09:37;4.57;;;2.50;;
62584;SDS011;48643;51.670;5.808;2023-07-20T14:12:25;3.88;;;2.50;;
62584;SDS011;48643;51.670;5.808;2023-07-20T14:14:53;6.55;;;3.10;;
62584;SDS011;48643;51.670;5.808;2023-07-20T14:17:21;4.20;;;2.50;;
62584;SDS011;48643;51.670;5.808;2023-07-20T14:19:48;3.35;;;2.17;;
62584;SDS011;48643;51.670;5.808;2023-07-20T14:22:16;3.60;;;2.03;;
62584;SDS011;48643;51.670;5.808;2023-07-20T14:24:45;3.00;;;2.10;;
62584;SDS011;48643;51.670;5.808;2023-07-20T14:27:12;4.45;;;2.70;;
62584;SDS011;48643;51.670;5.808;2023-07-20T14:29:39;6.25;;;2.55;;
62584;SDS011;48643;51.670;5.808;2023-07-20T14:32:06;3.28;;;2.40;;
62584;SDS011;48643;51.670;5.808;2023-07-20T14:34:34;6.82;;;3.00;;
62584;SDS011;48643;51.670;5.808;2023-07-20T14:37:05;3.80;;;2.60;;
62584;SDS011;48643;51.670;5.808;2023-07-20T14:39:32;5.10;;;2.60;;
62584;SDS011;48643;51.670;5.808;2023-07-20T14:41:59;4.50;;;2.38;;
62584;SDS011;48643;51.670;5.808;2023-07-20T14:44:26;3.47;;;2.38;;
62584;SDS011;48643;51.670;5.808;2023-07-20T14:46:53;4.70;;;2.05;;
62584;SDS011;48643;51.670;5.808;2023-07-20T14:49:39;3.67;;;2.40;;
62584;SDS011;48643;51.670;5.808;2023-07-20T14:52:06;3.40;;;2.10;;
62584;SDS011;48643;51.670;5.808;2023-07-20T14:54:36;3.28;;;2.10;;
62584;SDS011;48643;51.670;5.808;2023-07-20T14:57:03;2.03;;;1.80;;
62584;SDS011;48643;51.670;5.808;2023-07-20T14:59:30;3.28;;;1.77;;
62584;SDS011;48643;51.670;5.808;2023-07-20T15:01:57;4.95;;;2.00;;
62584;SDS011;48643;51.670;5.808;2023-07-20T15:04:24;5.28;;;1.90;;
62584;SDS011;48643;51.670;5.808;2023-07-20T15:06:50;2.78;;;1.80;;
62584;SDS011;48643;51.670;5.808;2023-07-20T15:09:17;3.35;;;1.70;;
62584;SDS011;48643;51.670;5.808;2023-07-20T15:11:44;4.88;;;1.98;;
62584;SDS011;48643;51.670;5.808;2023-07-20T15:14:11;2.60;;;1.80;;
62584;SDS011;48643;51.670;5.808;2023-07-20T15:16:38;3.10;;;1.70;;
62584;SDS011;48643;51.670;5.808;2023-07-20T15:19:05;2.40;;;1.73;;
62584;SDS011;48643;51.670;5.808;2023-07-20T15:21:32;2.35;;;1.80;;